createdAt,value
2023-01-15T00:01:22.682Z,10.70
2023-01-15T00:03:51.306Z,10.70
2023-01-15T00:06:20.628Z,10.70
2023-01-15T00:08:50.444Z,10.60
2023-01-15T00:11:20.490Z,10.80
2023-01-15T00:13:48.972Z,10.80
2023-01-15T00:16:19.809Z,10.60
2023-01-15T00:18:52.299Z,10.60
2023-01-15T00:21:20.971Z,10.60
2023-01-15T00:24:08.447Z,10.40
2023-01-15T00:26:55.194Z,10.40
2023-01-15T00:29:24.753Z,10.50
2023-01-15T00:31:56.916Z,10.50
2023-01-15T00:34:25.057Z,10.60
2023-01-15T00:36:53.275Z,10.50
2023-01-15T00:39:24.014Z,10.50
2023-01-15T00:41:52.397Z,10.50
2023-01-15T00:44:21.345Z,10.50
2023-01-15T00:46:49.939Z,10.40
2023-01-15T00:49:18.345Z,10.30
2023-01-15T00:51:46.355Z,10.40
2023-01-15T00:54:14.347Z,10.30
2023-01-15T00:56:43.750Z,10.30
2023-01-15T00:59:11.831Z,10.30
2023-01-15T01:01:40.118Z,10.10
2023-01-15T01:04:08.492Z,10.00
2023-01-15T01:06:36.706Z,10.10
2023-01-15T01:09:06.449Z,10.20
2023-01-15T01:11:36.713Z,9.70
2023-01-15T01:14:06.112Z,9.80
2023-01-15T01:16:37.732Z,10.10
2023-01-15T01:19:09.937Z,10.30
2023-01-15T01:21:40.373Z,10.30
2023-01-15T01:24:09.006Z,10.10
2023-01-15T01:26:37.038Z,10.20
2023-01-15T01:29:06.906Z,10.30
2023-01-15T01:31:34.951Z,10.20
2023-01-15T01:34:03.003Z,10.30
2023-01-15T01:36:35.984Z,10.20
2023-01-15T01:39:05.957Z,10.20
2023-01-15T01:41:34.949Z,10.20
2023-01-15T01:44:09.862Z,10.40
2023-01-15T01:46:38.049Z,10.30
2023-01-15T01:49:11.240Z,10.40
2023-01-15T01:51:42.406Z,10.60
2023-01-15T01:54:12.467Z,10.50
2023-01-15T01:56:40.798Z,10.60
2023-01-15T01:59:10.732Z,10.40
2023-01-15T02:01:38.856Z,10.20
2023-01-15T02:04:09.083Z,10.00
2023-01-15T02:06:38.779Z,9.70
2023-01-15T02:09:07.262Z,9.70
2023-01-15T02:11:36.295Z,9.30
2023-01-15T02:14:13.729Z,9.50
2023-01-15T02:16:48.655Z,9.30
2023-01-15T02:19:31.282Z,9.10
2023-01-15T02:22:12.870Z,9.00
2023-01-15T02:24:59.047Z,9.00
2023-01-15T02:27:28.903Z,9.10
2023-01-15T02:30:05.289Z,9.10
2023-01-15T02:32:42.627Z,8.90
2023-01-15T02:35:16.556Z,8.80
2023-01-15T02:37:51.084Z,8.70
2023-01-15T02:40:22.266Z,8.70
2023-01-15T02:42:51.993Z,8.90
2023-01-15T02:45:27.242Z,8.90
2023-01-15T02:47:59.051Z,8.90
2023-01-15T02:50:32.868Z,9.00
2023-01-15T02:53:07.874Z,9.20
2023-01-15T02:55:42.110Z,9.20
2023-01-15T02:58:16.452Z,9.10
2023-01-15T03:00:48.163Z,8.90
2023-01-15T03:03:22.656Z,9.00
2023-01-15T03:05:59.165Z,8.70
2023-01-15T03:08:27.400Z,8.50
2023-01-15T03:11:06.939Z,8.50
2023-01-15T03:13:48.315Z,8.70
2023-01-15T03:16:35.500Z,8.90
2023-01-15T03:19:11.701Z,8.90
2023-01-15T03:21:49.136Z,8.80
2023-01-15T03:24:26.652Z,8.70
2023-01-15T03:26:54.906Z,8.80
2023-01-15T03:29:25.703Z,8.70
2023-01-15T03:31:53.696Z,8.50
2023-01-15T03:34:21.753Z,8.60
2023-01-15T03:36:49.951Z,8.60
2023-01-15T03:39:17.983Z,8.70
2023-01-15T03:41:54.619Z,8.40
2023-01-15T03:44:33.730Z,8.30
2023-01-15T03:47:11.629Z,8.40
2023-01-15T03:49:49.718Z,8.00
2023-01-15T03:52:25.328Z,7.80
2023-01-15T03:55:00.811Z,7.50
2023-01-15T03:57:35.891Z,7.40
2023-01-15T04:00:12.232Z,7.20
2023-01-15T04:02:41.821Z,7.10
2023-01-15T04:05:10.166Z,6.90
2023-01-15T04:07:38.194Z,6.80
2023-01-15T04:10:10.304Z,7.00
2023-01-15T04:12:38.337Z,6.80
2023-01-15T04:15:09.543Z,6.80
2023-01-15T04:17:37.548Z,6.70
2023-01-15T04:20:07.339Z,6.70
2023-01-15T04:22:36.043Z,6.70
2023-01-15T04:25:04.253Z,6.60
2023-01-15T04:27:32.367Z,6.70
2023-01-15T04:30:00.354Z,6.60
2023-01-15T04:32:29.751Z,6.70
2023-01-15T04:34:57.772Z,6.60
2023-01-15T04:37:25.765Z,6.60
2023-01-15T04:39:53.753Z,6.50
2023-01-15T04:42:39.410Z,6.50
2023-01-15T04:45:09.008Z,6.50
2023-01-15T04:47:38.392Z,6.40
2023-01-15T04:50:07.597Z,6.40
2023-01-15T04:52:35.851Z,6.30
2023-01-15T04:55:03.962Z,6.30
2023-01-15T04:57:31.948Z,6.40
2023-01-15T04:59:59.933Z,6.30
2023-01-15T05:02:28.030Z,6.30
2023-01-15T05:04:57.375Z,6.30
2023-01-15T05:07:25.376Z,6.70
2023-01-15T05:09:54.853Z,6.60
2023-01-15T05:12:22.987Z,6.60
2023-01-15T05:14:50.995Z,6.90
2023-01-15T05:17:19.274Z,6.90
2023-01-15T05:19:47.279Z,7.00
2023-01-15T05:22:16.627Z,6.70
2023-01-15T05:24:44.656Z,6.80
2023-01-15T05:27:12.665Z,7.00
2023-01-15T05:29:40.672Z,6.80
2023-01-15T05:32:09.680Z,6.50
2023-01-15T05:34:37.859Z,6.60
2023-01-15T05:37:05.829Z,6.50
2023-01-15T05:39:35.216Z,6.50
2023-01-15T05:42:03.183Z,6.50
2023-01-15T05:44:31.454Z,6.50
2023-01-15T05:47:03.238Z,6.60
2023-01-15T05:49:32.024Z,6.80
2023-01-15T05:52:02.138Z,6.90
2023-01-15T05:54:35.018Z,6.70
2023-01-15T05:57:04.274Z,6.50
2023-01-15T05:59:33.927Z,6.60
2023-01-15T06:02:02.404Z,6.70
2023-01-15T06:04:30.439Z,7.00
2023-01-15T06:06:58.988Z,7.10
2023-01-15T06:09:28.042Z,7.20
2023-01-15T06:11:58.287Z,7.30
2023-01-15T06:14:26.863Z,7.10
2023-01-15T06:16:55.023Z,6.70
2023-01-15T06:19:23.017Z,6.60
2023-01-15T06:21:51.012Z,6.40
2023-01-15T06:24:20.780Z,6.30
2023-01-15T06:26:48.858Z,6.30
2023-01-15T06:29:20.281Z,6.30
2023-01-15T06:31:49.314Z,6.30
2023-01-15T06:34:17.638Z,6.20
2023-01-15T06:36:45.664Z,6.20
2023-01-15T06:39:13.620Z,6.30
2023-01-15T06:41:59.089Z,6.40
2023-01-15T06:44:57.329Z,6.30
2023-01-15T06:47:25.384Z,6.70
2023-01-15T06:49:56.087Z,6.80
2023-01-15T06:52:25.111Z,6.70
2023-01-15T06:54:53.812Z,6.40
2023-01-15T06:57:22.594Z,6.50
2023-01-15T06:59:52.517Z,6.50
2023-01-15T07:02:21.576Z,6.80
2023-01-15T07:04:49.895Z,6.70
2023-01-15T07:07:20.117Z,6.60
2023-01-15T07:09:48.575Z,6.60
2023-01-15T07:12:17.229Z,6.40
2023-01-15T07:14:45.235Z,6.30
2023-01-15T07:17:14.722Z,6.30
2023-01-15T07:19:42.911Z,6.30
2023-01-15T07:22:12.023Z,6.20
2023-01-15T07:24:40.272Z,6.50
2023-01-15T07:27:08.370Z,6.70
2023-01-15T07:29:36.429Z,7.00
2023-01-15T07:32:04.678Z,6.70
2023-01-15T07:34:34.104Z,6.90
2023-01-15T07:37:02.102Z,7.00
2023-01-15T07:39:31.548Z,7.10
2023-01-15T07:42:17.077Z,7.10
2023-01-15T07:45:02.555Z,7.00
2023-01-15T07:47:47.945Z,7.10
2023-01-15T07:50:20.171Z,7.20
2023-01-15T07:52:48.455Z,7.10
2023-01-15T07:55:16.742Z,7.20
2023-01-15T07:57:45.545Z,7.00
2023-01-15T08:00:19.996Z,7.10
2023-01-15T08:02:49.769Z,7.00
2023-01-15T08:05:19.929Z,7.00
2023-01-15T08:07:49.075Z,7.00
2023-01-15T08:10:17.458Z,6.70
2023-01-15T08:13:02.957Z,6.90
2023-01-15T08:15:34.879Z,6.80
2023-01-15T08:18:02.896Z,7.10
2023-01-15T08:20:32.411Z,6.90
2023-01-15T08:23:02.440Z,6.80
2023-01-15T08:25:30.427Z,6.90
2023-01-15T08:28:02.961Z,7.00
2023-01-15T08:30:31.154Z,6.90
2023-01-15T08:33:03.565Z,6.70
2023-01-15T08:35:34.177Z,6.50
2023-01-15T08:38:06.898Z,6.40
2023-01-15T08:40:36.094Z,6.60
2023-01-15T08:43:04.285Z,6.50
2023-01-15T08:45:32.344Z,6.30
2023-01-15T08:48:00.418Z,6.20
2023-01-15T08:50:28.504Z,6.60
2023-01-15T08:52:57.864Z,6.50
2023-01-15T08:55:25.888Z,6.50
2023-01-15T08:57:53.838Z,6.40
2023-01-15T09:00:24.435Z,6.40
2023-01-15T09:02:52.676Z,6.50
2023-01-15T09:05:20.719Z,6.50
2023-01-15T09:07:48.933Z,6.60
2023-01-15T09:10:18.792Z,6.40
2023-01-15T09:12:46.780Z,6.30
2023-01-15T09:15:14.868Z,6.10
2023-01-15T09:17:42.950Z,6.20
2023-01-15T09:20:14.656Z,6.50
2023-01-15T09:22:43.201Z,6.80
2023-01-15T09:25:11.599Z,6.50
2023-01-15T09:27:40.910Z,6.60
2023-01-15T09:30:11.932Z,6.40
2023-01-15T09:32:39.917Z,6.40
2023-01-15T09:35:09.609Z,6.50
2023-01-15T09:37:37.709Z,6.70
2023-01-15T09:40:09.229Z,6.50
2023-01-15T09:42:52.517Z,6.70
2023-01-15T09:45:26.242Z,6.80
2023-01-15T09:48:11.743Z,6.80
2023-01-15T09:50:53.365Z,6.90
2023-01-15T09:53:41.259Z,7.00
2023-01-15T09:56:21.143Z,7.10
2023-01-15T09:58:51.975Z,7.00
2023-01-15T10:01:26.965Z,6.80
2023-01-15T10:04:01.230Z,6.80
2023-01-15T10:06:32.436Z,6.90
2023-01-15T10:09:07.451Z,6.80
2023-01-15T10:12:03.312Z,6.80
2023-01-15T10:14:40.621Z,6.90
2023-01-15T10:17:30.181Z,6.90
2023-01-15T10:19:58.941Z,6.70
2023-01-15T10:22:46.204Z,6.80
2023-01-15T10:25:18.097Z,6.70
2023-01-15T10:27:52.139Z,6.50
2023-01-15T10:30:33.621Z,6.70
2023-01-15T10:33:17.658Z,6.90
2023-01-15T10:35:56.214Z,6.50
2023-01-15T10:38:31.938Z,6.60
2023-01-15T10:41:19.180Z,6.70
2023-01-15T10:43:53.572Z,6.50
2023-01-15T10:46:27.903Z,6.60
2023-01-15T10:49:00.737Z,6.30
2023-01-15T10:51:34.228Z,6.40
2023-01-15T10:54:08.719Z,6.30
2023-01-15T10:56:42.777Z,6.40
2023-01-15T10:59:17.587Z,6.50
2023-01-15T11:01:48.833Z,6.50
2023-01-15T11:04:16.912Z,6.60
2023-01-15T11:06:45.021Z,6.70
2023-01-15T11:09:23.957Z,6.50
2023-01-15T11:12:13.055Z,6.70
2023-01-15T11:15:02.151Z,6.60
2023-01-15T11:17:59.997Z,6.60
2023-01-15T11:20:32.129Z,6.50
2023-01-15T11:23:10.365Z,6.80
2023-01-15T11:25:44.622Z,7.10
2023-01-15T11:28:15.421Z,7.10
2023-01-15T11:30:45.208Z,7.00
2023-01-15T11:33:26.305Z,7.10
2023-01-15T11:35:58.256Z,7.00
2023-01-15T11:38:28.852Z,7.00
2023-01-15T11:40:59.798Z,6.90
2023-01-15T11:43:48.391Z,6.70
2023-01-15T11:46:48.768Z,6.80
2023-01-15T11:49:39.441Z,7.30
2023-01-15T11:52:11.700Z,7.90
2023-01-15T11:54:43.449Z,7.70
2023-01-15T11:57:12.431Z,7.80
2023-01-15T11:59:40.914Z,8.00
2023-01-15T12:02:26.112Z,8.50
2023-01-15T12:04:58.587Z,8.70
2023-01-15T12:07:27.279Z,8.90
2023-01-15T12:10:14.621Z,9.00
2023-01-15T12:12:59.572Z,9.00
2023-01-15T12:15:40.445Z,9.30
2023-01-15T12:18:39.445Z,9.10
2023-01-15T12:21:45.677Z,8.90
2023-01-15T12:24:38.618Z,8.80
2023-01-15T12:27:38.065Z,8.50
2023-01-15T12:30:20.707Z,8.50
2023-01-15T12:32:55.081Z,8.50
2023-01-15T12:35:30.876Z,8.70
2023-01-15T12:38:11.837Z,9.20
2023-01-15T12:40:48.439Z,9.10
2023-01-15T12:43:42.134Z,9.30
2023-01-15T12:46:16.117Z,9.20
2023-01-15T12:48:51.290Z,8.80
2023-01-15T12:51:28.232Z,8.30
2023-01-15T12:54:06.992Z,8.60
2023-01-15T12:56:48.391Z,8.40
2023-01-15T12:59:23.877Z,8.10
2023-01-15T13:02:02.896Z,8.00
2023-01-15T13:04:37.633Z,8.20
2023-01-15T13:07:18.417Z,7.90
2023-01-15T13:09:55.060Z,8.10
2023-01-15T13:12:23.168Z,8.30
2023-01-15T13:14:51.319Z,8.50
2023-01-15T13:17:29.463Z,8.60
2023-01-15T13:20:20.468Z,8.90
2023-01-15T13:22:56.172Z,9.00
2023-01-15T13:25:57.959Z,8.90
2023-01-15T13:28:56.134Z,8.70
2023-01-15T13:31:54.212Z,8.70
2023-01-15T13:34:32.915Z,8.80
2023-01-15T13:37:06.144Z,8.50
2023-01-15T13:39:41.881Z,8.60
2023-01-15T13:42:37.763Z,8.60
2023-01-15T13:45:27.533Z,8.60
2023-01-15T13:47:59.666Z,8.30
2023-01-15T13:50:32.032Z,8.00
2023-01-15T13:53:08.875Z,7.90
2023-01-15T13:55:39.738Z,8.10
2023-01-15T13:58:25.365Z,8.00
2023-01-15T14:01:09.184Z,7.90
2023-01-15T14:03:39.404Z,7.80
2023-01-15T14:06:10.401Z,7.80
2023-01-15T14:08:41.878Z,7.70
2023-01-15T14:11:39.342Z,7.50
2023-01-15T14:14:45.659Z,7.50
2023-01-15T14:18:08.682Z,7.80
2023-01-15T14:20:55.735Z,7.80
2023-01-15T14:23:53.627Z,7.70
2023-01-15T14:26:35.822Z,7.60
2023-01-15T14:29:31.208Z,7.60
2023-01-15T14:32:09.229Z,7.70
2023-01-15T14:34:37.666Z,7.80
2023-01-15T14:37:08.791Z,7.70
2023-01-15T14:39:43.155Z,7.70
2023-01-15T14:42:35.223Z,7.70
2023-01-15T14:45:08.957Z,7.80
2023-01-15T14:47:47.541Z,7.60
2023-01-15T14:50:42.013Z,7.60
2023-01-15T14:53:32.680Z,7.70
2023-01-15T14:56:13.920Z,7.50
2023-01-15T14:58:50.141Z,7.30
2023-01-15T15:01:39.090Z,7.20
2023-01-15T15:04:23.438Z,7.20
2023-01-15T15:06:56.163Z,7.40
2023-01-15T15:09:39.209Z,7.40
2023-01-15T15:12:25.943Z,7.40
2023-01-15T15:15:05.026Z,7.20
2023-01-15T15:17:45.683Z,7.50
2023-01-15T15:20:31.408Z,7.60
2023-01-15T15:23:05.843Z,7.80
2023-01-15T15:25:40.108Z,7.80
2023-01-15T15:28:14.231Z,7.60
2023-01-15T15:30:46.093Z,7.50
2023-01-15T15:33:19.865Z,7.70
2023-01-15T15:35:51.876Z,7.90
2023-01-15T15:38:22.577Z,8.00
2023-01-15T15:40:54.609Z,8.00
2023-01-15T15:43:46.395Z,7.80
2023-01-15T15:46:55.556Z,7.80
2023-01-15T15:49:24.937Z,7.70
2023-01-15T15:51:54.916Z,7.60
2023-01-15T15:54:26.419Z,7.50
2023-01-15T15:57:03.343Z,7.50
2023-01-15T15:59:35.431Z,7.40
2023-01-15T16:02:17.685Z,7.30
2023-01-15T16:04:48.991Z,7.40
2023-01-15T16:07:25.891Z,7.30
2023-01-15T16:09:58.457Z,7.40
2023-01-15T16:12:30.668Z,6.90
2023-01-15T16:15:01.217Z,7.20
2023-01-15T16:17:29.776Z,7.20
2023-01-15T16:19:59.882Z,7.00
2023-01-15T16:22:27.982Z,7.10
2023-01-15T16:24:58.370Z,6.80
2023-01-15T16:27:33.111Z,6.90
2023-01-15T16:30:01.615Z,6.90
2023-01-15T16:32:35.645Z,6.40
2023-01-15T16:35:15.998Z,6.30
2023-01-15T16:37:48.593Z,6.40
2023-01-15T16:40:25.899Z,6.50
2023-01-15T16:43:06.126Z,6.50
2023-01-15T16:45:36.009Z,6.50
2023-01-15T16:48:27.322Z,6.70
2023-01-15T16:50:58.229Z,6.40
2023-01-15T16:53:39.916Z,6.60
2023-01-15T16:56:27.989Z,6.40
2023-01-15T16:58:55.958Z,6.40
2023-01-15T17:01:42.028Z,6.50
2023-01-15T17:04:20.970Z,6.40
2023-01-15T17:06:59.132Z,6.40
2023-01-15T17:09:27.699Z,6.60
2023-01-15T17:11:58.935Z,6.70
2023-01-15T17:14:29.672Z,6.50
2023-01-15T17:17:25.627Z,6.50
2023-01-15T17:19:56.647Z,6.40
2023-01-15T17:22:30.259Z,6.40
2023-01-15T17:25:00.150Z,6.50
2023-01-15T17:27:30.182Z,6.30
2023-01-15T17:29:58.633Z,6.30
2023-01-15T17:32:32.239Z,6.50
2023-01-15T17:35:01.253Z,6.60
2023-01-15T17:37:30.584Z,6.30
2023-01-15T17:39:58.651Z,6.40
2023-01-15T17:42:29.658Z,6.40
2023-01-15T17:44:57.834Z,6.20
2023-01-15T17:47:25.949Z,6.30
2023-01-15T17:49:53.919Z,6.20
2023-01-15T17:52:22.176Z,6.40
2023-01-15T17:55:08.946Z,6.20
2023-01-15T17:57:54.897Z,6.30
2023-01-15T18:00:41.862Z,6.30
2023-01-15T18:03:34.515Z,6.20
2023-01-15T18:06:02.544Z,6.40
2023-01-15T18:08:31.308Z,6.40
2023-01-15T18:11:01.072Z,6.30
2023-01-15T18:13:30.995Z,6.30
2023-01-15T18:15:59.363Z,6.40
2023-01-15T18:18:30.000Z,6.20
2023-01-15T18:20:58.353Z,6.00
2023-01-15T18:23:27.544Z,6.10
2023-01-15T18:25:55.978Z,6.20
2023-01-15T18:28:25.375Z,5.90
2023-01-15T18:30:55.936Z,6.00
2023-01-15T18:33:23.931Z,6.00
2023-01-15T18:35:51.958Z,5.90
2023-01-15T18:38:19.951Z,6.10
2023-01-15T18:40:47.975Z,6.10
2023-01-15T18:43:32.839Z,6.00
2023-01-15T18:46:20.073Z,5.90
2023-01-15T18:48:48.110Z,5.70
2023-01-15T18:51:16.125Z,5.90
2023-01-15T18:53:44.157Z,6.20
2023-01-15T18:56:32.924Z,6.30
2023-01-15T18:59:00.945Z,6.30
2023-01-15T19:01:30.364Z,6.10
2023-01-15T19:03:59.986Z,6.00
2023-01-15T19:06:28.015Z,5.90
2023-01-15T19:08:56.002Z,6.30
2023-01-15T19:11:23.979Z,6.10
2023-01-15T19:14:05.908Z,6.00
2023-01-15T19:16:55.591Z,6.10
2023-01-15T19:19:26.816Z,6.00
2023-01-15T19:22:09.385Z,6.10
2023-01-15T19:24:37.796Z,6.00
2023-01-15T19:27:07.128Z,6.00
2023-01-15T19:29:38.156Z,5.90
2023-01-15T19:32:07.888Z,5.80
2023-01-15T19:34:36.363Z,5.70
2023-01-15T19:37:04.875Z,5.80
2023-01-15T19:39:32.942Z,5.80
2023-01-15T19:42:18.737Z,5.90
2023-01-15T19:45:04.379Z,6.00
2023-01-15T19:47:56.097Z,6.20
2023-01-15T19:50:33.047Z,6.20
2023-01-15T19:53:01.267Z,6.00
2023-01-15T19:55:32.638Z,6.00
2023-01-15T19:58:02.765Z,6.20
2023-01-15T20:00:36.848Z,6.10
2023-01-15T20:03:09.919Z,6.00
2023-01-15T20:05:40.041Z,5.90
2023-01-15T20:08:12.655Z,5.80
2023-01-15T20:10:42.120Z,6.00
2023-01-15T20:13:34.352Z,6.10
2023-01-15T20:16:09.171Z,6.10
2023-01-15T20:18:39.021Z,5.90
2023-01-15T20:21:07.710Z,5.90
2023-01-15T20:23:36.588Z,5.80
2023-01-15T20:26:07.242Z,5.90
2023-01-15T20:28:35.886Z,5.60
2023-01-15T20:31:04.250Z,5.70
2023-01-15T20:33:33.074Z,5.90
2023-01-15T20:36:12.213Z,6.10
2023-01-15T20:38:40.313Z,5.80
2023-01-15T20:41:26.823Z,5.70
2023-01-15T20:44:12.446Z,5.70
2023-01-15T20:46:40.764Z,5.50
2023-01-15T20:49:28.041Z,5.50
2023-01-15T20:51:58.165Z,5.50
2023-01-15T20:54:27.713Z,5.60
2023-01-15T20:56:55.751Z,5.70
2023-01-15T20:59:24.575Z,5.50
2023-01-15T21:01:54.990Z,5.30
2023-01-15T21:04:25.654Z,5.50
2023-01-15T21:06:56.765Z,5.50
2023-01-15T21:09:26.763Z,5.50
2023-01-15T21:11:54.910Z,5.50
2023-01-15T21:14:23.122Z,5.50
2023-01-15T21:16:52.387Z,5.60
2023-01-15T21:19:21.169Z,5.40
2023-01-15T21:21:49.270Z,5.60
2023-01-15T21:24:17.348Z,5.50
2023-01-15T21:26:48.611Z,5.50
2023-01-15T21:29:17.713Z,5.50
2023-01-15T21:31:45.867Z,5.50
2023-01-15T21:34:13.990Z,5.70
2023-01-15T21:36:42.579Z,5.60
2023-01-15T21:39:13.057Z,5.60
2023-01-15T21:41:58.943Z,5.70
2023-01-15T21:44:32.606Z,5.70
2023-01-15T21:47:02.658Z,5.70
2023-01-15T21:49:32.945Z,5.60
2023-01-15T21:52:01.476Z,5.70
2023-01-15T21:54:29.980Z,5.80
2023-01-15T21:56:58.604Z,6.10
2023-01-15T21:59:28.119Z,6.30
2023-01-15T22:01:57.442Z,6.40
2023-01-15T22:04:30.335Z,6.40
2023-01-15T22:06:58.383Z,6.50
2023-01-15T22:09:26.484Z,6.30
2023-01-15T22:11:54.669Z,6.10
2023-01-15T22:14:29.241Z,6.10
2023-01-15T22:16:59.872Z,5.80
2023-01-15T22:19:30.140Z,5.90
2023-01-15T22:22:00.898Z,5.70
2023-01-15T22:24:30.801Z,5.50
2023-01-15T22:26:59.861Z,5.50
2023-01-15T22:29:34.325Z,5.40
2023-01-15T22:32:03.423Z,5.60
2023-01-15T22:34:32.079Z,5.90
2023-01-15T22:37:00.276Z,5.80
2023-01-15T22:39:29.988Z,5.70
2023-01-15T22:42:16.063Z,5.70
2023-01-15T22:44:45.675Z,5.90
2023-01-15T22:47:17.701Z,6.10
2023-01-15T22:49:47.021Z,5.90
2023-01-15T22:52:15.145Z,5.90
2023-01-15T22:54:44.706Z,6.00
2023-01-15T22:57:13.940Z,6.10
2023-01-15T22:59:44.305Z,6.20
2023-01-15T23:02:15.096Z,6.20
2023-01-15T23:04:43.442Z,6.10
2023-01-15T23:07:12.994Z,6.10
2023-01-15T23:09:41.117Z,6.10
2023-01-15T23:12:09.419Z,6.00
2023-01-15T23:14:37.379Z,5.90
2023-01-15T23:17:05.388Z,6.10
2023-01-15T23:19:34.836Z,6.10
2023-01-15T23:22:05.346Z,6.30
2023-01-15T23:24:33.361Z,6.20
2023-01-15T23:27:01.354Z,6.10
2023-01-15T23:29:31.614Z,6.10
2023-01-15T23:32:00.970Z,6.30
2023-01-15T23:34:29.005Z,6.20
2023-01-15T23:37:06.195Z,6.30
2023-01-15T23:39:34.278Z,6.10
2023-01-15T23:42:19.715Z,5.90
2023-01-15T23:45:05.029Z,5.90
2023-01-15T23:47:32.989Z,5.90
2023-01-15T23:50:03.333Z,5.90
2023-01-15T23:52:34.344Z,5.70
2023-01-15T23:55:02.397Z,5.80
2023-01-15T23:57:31.005Z,6.00
2023-01-15T23:59:59.014Z,5.90
